sensor_id;sensor_type;location;lat;lon;timestamp;P1;durP1;ratioP1;P2;durP2;ratioP2
18136;SDS011;9194;42.632;23.298;2023-02-13T00:04:11;19.27;;;8.07;;
18136;SDS011;9194;42.632;23.298;2023-02-13T00:09:13;18.33;;;8.17;;
18136;SDS011;9194;42.632;23.298;2023-02-13T00:14:15;16.83;;;8.47;;
18136;SDS011;9194;42.632;23.298;2023-02-13T00:19:16;16.20;;;7.30;;
18136;SDS011;9194;42.632;23.298;2023-02-13T00:24:17;14.63;;;6.67;;
18136;SDS011;9194;42.632;23.298;2023-02-13T00:29:19;11.43;;;6.23;;
18136;SDS011;9194;42.632;23.298;2023-02-13T00:34:21;12.47;;;6.27;;
18136;SDS011;9194;42.632;23.298;2023-02-13T00:39:23;18.23;;;7.90;;
18136;SDS011;9194;42.632;23.298;2023-02-13T00:44:24;19.47;;;8.97;;
18136;SDS011;9194;42.632;23.298;2023-02-13T00:49:25;22.47;;;9.17;;
18136;SDS011;9194;42.632;23.298;2023-02-13T00:54:27;25.50;;;11.07;;
18136;SDS011;9194;42.632;23.298;2023-02-13T00:59:28;17.50;;;8.63;;
18136;SDS011;9194;42.632;23.298;2023-02-13T01:04:29;24.87;;;9.77;;
18136;SDS011;9194;42.632;23.298;2023-02-13T01:09:31;24.63;;;9.70;;
18136;SDS011;9194;42.632;23.298;2023-02-13T01:14:32;22.07;;;8.73;;
18136;SDS011;9194;42.632;23.298;2023-02-13T01:19:34;19.07;;;8.70;;
18136;SDS011;9194;42.632;23.298;2023-02-13T01:24:35;19.93;;;8.93;;
18136;SDS011;9194;42.632;23.298;2023-02-13T01:29:36;20.50;;;8.60;;
18136;SDS011;9194;42.632;23.298;2023-02-13T01:34:38;23.83;;;11.50;;
18136;SDS011;9194;42.632;23.298;2023-02-13T01:39:39;28.70;;;11.57;;
18136;SDS011;9194;42.632;23.298;2023-02-13T01:49:52;26.13;;;10.83;;
18136;SDS011;9194;42.632;23.298;2023-02-13T01:55:02;30.40;;;12.77;;
18136;SDS011;9194;42.632;23.298;2023-02-13T02:00:07;29.37;;;12.50;;
18136;SDS011;9194;42.632;23.298;2023-02-13T02:05:20;40.93;;;14.43;;
18136;SDS011;9194;42.632;23.298;2023-02-13T02:10:26;37.23;;;13.27;;
18136;SDS011;9194;42.632;23.298;2023-02-13T02:15:29;36.67;;;12.73;;
18136;SDS011;9194;42.632;23.298;2023-02-13T02:37:00;41.10;;;13.97;;
18136;SDS011;9194;42.632;23.298;2023-02-13T02:48:02;31.23;;;11.83;;
18136;SDS011;9194;42.632;23.298;2023-02-13T02:53:37;35.40;;;12.37;;
18136;SDS011;9194;42.632;23.298;2023-02-13T03:04:11;23.07;;;10.70;;
18136;SDS011;9194;42.632;23.298;2023-02-13T03:09:39;31.20;;;12.33;;
18136;SDS011;9194;42.632;23.298;2023-02-13T03:15:02;32.33;;;13.03;;
18136;SDS011;9194;42.632;23.298;2023-02-13T03:20:09;37.07;;;14.90;;
18136;SDS011;9194;42.632;23.298;2023-02-13T03:25:37;41.07;;;16.40;;
18136;SDS011;9194;42.632;23.298;2023-02-13T03:42:17;29.10;;;12.17;;
18136;SDS011;9194;42.632;23.298;2023-02-13T03:47:35;30.07;;;13.27;;
18136;SDS011;9194;42.632;23.298;2023-02-13T03:57:55;31.17;;;12.17;;
18136;SDS011;9194;42.632;23.298;2023-02-13T04:08:31;22.23;;;10.27;;
18136;SDS011;9194;42.632;23.298;2023-02-13T04:19:00;26.03;;;10.83;;
18136;SDS011;9194;42.632;23.298;2023-02-13T04:24:03;27.00;;;10.70;;
18136;SDS011;9194;42.632;23.298;2023-02-13T04:29:04;23.43;;;9.47;;
18136;SDS011;9194;42.632;23.298;2023-02-13T04:34:06;22.50;;;10.67;;
18136;SDS011;9194;42.632;23.298;2023-02-13T04:39:07;24.90;;;10.40;;
18136;SDS011;9194;42.632;23.298;2023-02-13T04:44:09;24.87;;;9.83;;
18136;SDS011;9194;42.632;23.298;2023-02-13T04:49:10;17.63;;;7.73;;
18136;SDS011;9194;42.632;23.298;2023-02-13T04:54:14;18.37;;;8.17;;
18136;SDS011;9194;42.632;23.298;2023-02-13T04:59:15;25.60;;;10.03;;
18136;SDS011;9194;42.632;23.298;2023-02-13T05:04:19;13.53;;;6.83;;
18136;SDS011;9194;42.632;23.298;2023-02-13T05:09:21;52.90;;;17.40;;
18136;SDS011;9194;42.632;23.298;2023-02-13T05:14:22;48.87;;;18.20;;
18136;SDS011;9194;42.632;23.298;2023-02-13T05:19:23;76.57;;;27.40;;
18136;SDS011;9194;42.632;23.298;2023-02-13T05:24:25;54.30;;;19.13;;
18136;SDS011;9194;42.632;23.298;2023-02-13T05:29:26;30.67;;;12.23;;
18136;SDS011;9194;42.632;23.298;2023-02-13T05:34:27;19.93;;;8.50;;
18136;SDS011;9194;42.632;23.298;2023-02-13T05:39:29;27.10;;;10.13;;
18136;SDS011;9194;42.632;23.298;2023-02-13T05:44:31;20.47;;;8.47;;
18136;SDS011;9194;42.632;23.298;2023-02-13T05:49:32;23.93;;;10.90;;
18136;SDS011;9194;42.632;23.298;2023-02-13T05:54:34;66.97;;;22.77;;
18136;SDS011;9194;42.632;23.298;2023-02-13T05:59:36;68.83;;;26.00;;
18136;SDS011;9194;42.632;23.298;2023-02-13T06:04:37;82.43;;;27.70;;
18136;SDS011;9194;42.632;23.298;2023-02-13T06:09:39;82.53;;;28.03;;
18136;SDS011;9194;42.632;23.298;2023-02-13T06:14:40;78.53;;;27.30;;
18136;SDS011;9194;42.632;23.298;2023-02-13T06:19:42;81.70;;;27.67;;
18136;SDS011;9194;42.632;23.298;2023-02-13T06:24:43;79.17;;;27.53;;
18136;SDS011;9194;42.632;23.298;2023-02-13T06:29:44;95.93;;;35.80;;
18136;SDS011;9194;42.632;23.298;2023-02-13T06:34:45;74.97;;;26.73;;
18136;SDS011;9194;42.632;23.298;2023-02-13T06:39:47;75.87;;;28.80;;
18136;SDS011;9194;42.632;23.298;2023-02-13T06:44:48;75.20;;;26.10;;
18136;SDS011;9194;42.632;23.298;2023-02-13T06:49:52;73.70;;;26.13;;
18136;SDS011;9194;42.632;23.298;2023-02-13T06:54:53;64.97;;;25.53;;
18136;SDS011;9194;42.632;23.298;2023-02-13T06:59:54;71.97;;;26.57;;
18136;SDS011;9194;42.632;23.298;2023-02-13T07:04:55;65.70;;;24.77;;
18136;SDS011;9194;42.632;23.298;2023-02-13T07:09:57;77.67;;;28.30;;
18136;SDS011;9194;42.632;23.298;2023-02-13T07:14:58;77.40;;;27.97;;
18136;SDS011;9194;42.632;23.298;2023-02-13T07:20:00;70.80;;;27.33;;
18136;SDS011;9194;42.632;23.298;2023-02-13T07:25:01;73.13;;;25.90;;
18136;SDS011;9194;42.632;23.298;2023-02-13T07:30:03;66.57;;;24.77;;
18136;SDS011;9194;42.632;23.298;2023-02-13T07:35:04;74.07;;;26.90;;
18136;SDS011;9194;42.632;23.298;2023-02-13T07:40:06;69.00;;;26.20;;
18136;SDS011;9194;42.632;23.298;2023-02-13T07:45:08;64.67;;;26.33;;
18136;SDS011;9194;42.632;23.298;2023-02-13T07:50:09;62.83;;;25.40;;
18136;SDS011;9194;42.632;23.298;2023-02-13T07:55:11;60.10;;;24.70;;
18136;SDS011;9194;42.632;23.298;2023-02-13T08:00:12;60.33;;;24.63;;
18136;SDS011;9194;42.632;23.298;2023-02-13T08:05:14;62.70;;;24.23;;
18136;SDS011;9194;42.632;23.298;2023-02-13T08:10:16;69.47;;;24.83;;
18136;SDS011;9194;42.632;23.298;2023-02-13T08:15:36;61.87;;;23.93;;
18136;SDS011;9194;42.632;23.298;2023-02-13T08:20:37;64.27;;;26.37;;
18136;SDS011;9194;42.632;23.298;2023-02-13T08:25:38;58.67;;;25.43;;
18136;SDS011;9194;42.632;23.298;2023-02-13T08:30:40;61.93;;;25.20;;
18136;SDS011;9194;42.632;23.298;2023-02-13T08:35:43;59.33;;;25.33;;
